Time;durP1;ratioP1;P1;durP2;ratioP2;P2;SDS_P1;SDS_P2;PMS_P1;PMS_P2;Temp;Humidity;BMP_temperature;BMP_pressure;BME280_temperature;BME280_humidity;BME280_pressure;Samples;Min_cycle;Max_cycle;Signal;HPM_P1;HPM_P2
2022/10/06 00:00:47;;;;;;;13.02;6.63;;;;;;;7.02;100.00;98905.59;5114609;27;20031;-83
2022/10/06 00:03:13;;;;;;;10.43;6.45;;;;;;;7.04;100.00;98907.31;5097182;28;20041;-83
2022/10/06 00:05:38;;;;;;;11.10;6.57;;;;;;;7.09;100.00;98899.22;5114093;28;20038;-83
2022/10/06 00:08:04;;;;;;;12.40;6.45;;;;;;;7.14;100.00;98899.13;5097564;28;20393;-83
2022/10/06 00:10:30;;;;;;;14.30;7.15;;;;;;;7.17;100.00;98896.38;5101949;27;20031;-83
2022/10/06 00:12:56;;;;;;;11.60;6.20;;;;;;;7.15;100.00;98892.84;5137805;27;20043;-84
2022/10/06 00:15:25;;;;;;;9.38;5.78;;;;;;;7.23;100.00;98901.53;5104287;27;20062;-83
2022/10/06 00:17:51;;;;;;;9.48;6.32;;;;;;;7.18;100.00;98900.75;5103956;27;20023;-83
2022/10/06 00:20:17;;;;;;;13.10;6.68;;;;;;;7.24;100.00;98900.59;5120880;27;20084;-84
2022/10/06 00:22:46;;;;;;;10.85;6.75;;;;;;;7.21;100.00;98895.34;5104037;27;20107;-83
2022/10/06 00:25:14;;;;;;;11.25;6.50;;;;;;;7.25;100.00;98895.25;5103463;27;20080;-83
2022/10/06 00:27:48;;;;;;;11.00;6.57;;;;;;;7.23;100.00;98893.53;5103465;27;20058;-83
2022/10/06 00:30:22;;;;;;;13.98;6.60;;;;;;;7.13;100.00;98882.28;5104523;27;20138;-84
2022/10/06 00:32:56;;;;;;;10.40;6.35;;;;;;;7.08;100.00;98878.84;5104608;27;20147;-83
2022/10/06 00:35:24;;;;;;;13.95;5.90;;;;;;;6.93;100.00;98863.28;5120904;27;20137;-83
2022/10/06 00:37:50;;;;;;;8.80;6.05;;;;;;;6.82;100.00;98852.94;5104214;27;20070;-83
2022/10/06 00:40:16;;;;;;;12.15;6.70;;;;;;;6.88;100.00;98873.19;5103765;27;20059;-84
2022/10/06 00:42:59;;;;;;;10.32;5.85;;;;;;;6.76;100.00;98853.13;5120896;27;20403;-84
2022/10/06 00:45:33;;;;;;;13.00;5.38;;;;;;;6.81;100.00;98867.16;5103367;27;20023;-85
2022/10/06 00:48:10;;;;;;;10.77;5.72;;;;;;;6.74;100.00;98860.22;5120556;27;20026;-84
2022/10/06 00:50:36;;;;;;;10.45;4.85;;;;;;;6.78;100.00;98859.25;5120939;27;20027;-83
2022/10/06 00:53:03;;;;;;;8.45;4.93;;;;;;;6.81;100.00;98859.16;5103689;27;20035;-84
2022/10/06 00:55:29;;;;;;;9.25;5.18;;;;;;;6.85;100.00;98855.53;5120935;27;20027;-84
2022/10/06 00:57:55;;;;;;;7.93;5.05;;;;;;;6.85;100.00;98844.00;5103821;27;20026;-84
2022/10/06 01:00:21;;;;;;;9.00;4.95;;;;;;;6.94;100.00;98852.63;5120633;27;20451;-83
2022/10/06 01:02:49;;;;;;;12.35;4.93;;;;;;;6.92;100.00;98842.94;5120894;27;20027;-82
2022/10/06 01:05:22;;;;;;;10.02;4.97;;;;;;;6.91;100.00;98842.06;5120640;27;20027;-83
2022/10/06 01:07:47;;;;;;;9.60;5.10;;;;;;;6.85;100.00;98836.03;5103649;27;20047;-83
2022/10/06 01:10:13;;;;;;;7.78;5.35;;;;;;;6.71;100.00;98831.06;5103066;27;20034;-84
2022/10/06 01:12:38;;;;;;;10.80;4.93;;;;;;;6.69;100.00;98838.22;5121101;27;20031;-84
2022/10/06 01:15:05;;;;;;;8.57;5.38;;;;;;;6.73;100.00;98844.34;5104034;27;20019;-83
2022/10/06 01:17:35;;;;;;;18.85;8.52;;;;;;;6.66;100.00;98835.63;5103671;27;20037;-83
2022/10/06 01:20:07;;;;;;;19.38;8.65;;;;;;;6.59;100.00;98826.06;5103426;27;20023;-83
2022/10/06 01:22:42;;;;;;;19.92;8.60;;;;;;;6.72;100.00;98843.47;5117835;27;20019;-84
2022/10/06 01:25:09;;;;;;;19.27;7.97;;;;;;;6.60;100.00;98825.16;5117815;27;20031;-83
2022/10/06 01:27:37;;;;;;;17.40;8.18;;;;;;;6.65;100.00;98825.91;5100296;27;20440;-84
2022/10/06 01:30:04;;;;;;;17.42;7.03;;;;;;;6.75;100.00;98832.75;5117214;27;20043;-83
2022/10/06 01:32:35;;;;;;;11.73;6.75;;;;;;;6.76;100.00;98826.53;5100073;27;20047;-83
2022/10/06 01:35:01;;;;;;;12.32;6.95;;;;;;;6.73;100.00;98815.09;5100310;27;20466;-83
2022/10/06 01:37:26;;;;;;;11.80;6.53;;;;;;;6.73;100.00;98826.59;5117168;27;20101;-84
2022/10/06 01:39:52;;;;;;;14.82;7.15;;;;;;;6.58;100.00;98824.34;5100085;27;20050;-84
2022/10/06 01:42:17;;;;;;;12.55;6.75;;;;;;;6.56;100.00;98823.47;5099864;27;20060;-83
2022/10/06 01:44:43;;;;;;;20.38;7.55;;;;;;;6.64;100.00;98842.78;5099007;27;20467;-82
2022/10/06 01:47:10;;;;;;;15.63;8.02;;;;;;;6.64;100.00;98842.78;5117340;27;20462;-83
2022/10/06 01:49:35;;;;;;;10.18;5.93;;;;;;;6.51;100.00;98820.09;5099622;27;20031;-84
2022/10/06 01:52:01;;;;;;;13.88;5.68;;;;;;;6.43;100.00;98828.22;5100307;27;20092;-83
2022/10/06 01:54:27;;;;;;;10.52;5.93;;;;;;;6.42;100.00;98833.59;5099612;27;20027;-84
2022/10/06 01:56:52;;;;;;;11.02;6.55;;;;;;;6.38;100.00;98840.78;5100161;27;20031;-84
2022/10/06 01:59:21;;;;;;;15.10;6.35;;;;;;;6.35;100.00;98835.53;5100513;27;20088;-83
2022/10/06 02:01:46;;;;;;;14.52;6.97;;;;;;;6.26;100.00;98830.44;5115776;27;20027;-83
2022/10/06 02:04:12;;;;;;;10.07;6.47;;;;;;;6.14;100.00;98813.94;5100188;27;20116;-83
2022/10/06 02:06:37;;;;;;;12.88;6.10;;;;;;;6.08;100.00;98830.00;5116934;27;20062;-84
2022/10/06 02:09:03;;;;;;;13.48;5.90;;;;;;;6.08;100.00;98830.00;5099625;27;20030;-84
2022/10/06 02:11:29;;;;;;;8.50;5.82;;;;;;;5.99;100.00;98831.09;5099005;27;20027;-83
2022/10/06 02:13:54;;;;;;;11.95;5.75;;;;;;;6.08;100.00;98845.94;5115972;27;20027;-84
2022/10/06 02:16:23;;;;;;;9.77;5.70;;;;;;;5.98;100.00;98835.53;5117156;27;20034;-83
2022/10/06 02:18:48;;;;;;;14.13;5.53;;;;;;;5.97;100.00;98832.91;5115518;27;20038;-83
2022/10/06 02:21:16;;;;;;;11.88;5.88;;;;;;;5.93;100.00;98834.78;5099511;27;20019;-84
2022/10/06 02:23:42;;;;;;;10.77;5.68;;;;;;;5.82;100.00;98838.53;5116039;27;20023;-83
2022/10/06 02:26:08;;;;;;;10.88;6.38;;;;;;;5.82;100.00;98844.72;5099324;27;20470;-83
2022/10/06 02:28:34;;;;;;;8.48;5.18;;;;;;;5.83;100.00;98845.59;5099272;27;20026;-83
2022/10/06 02:31:06;;;;;;;10.95;6.03;;;;;;;5.88;100.00;98855.22;5099366;27;20047;-83
2022/10/06 02:33:32;;;;;;;14.25;6.10;;;;;;;5.85;100.00;98854.38;5098635;27;20015;-83
2022/10/06 02:35:58;;;;;;;12.68;6.53;;;;;;;5.80;100.00;98843.00;5098873;27;20042;-84
2022/10/06 02:38:24;;;;;;;15.02;6.65;;;;;;;5.79;100.00;98844.78;5115909;27;20011;-84
2022/10/06 02:40:50;;;;;;;13.23;6.18;;;;;;;5.84;100.00;98850.00;5115615;27;20033;-84
2022/10/06 02:43:16;;;;;;;22.45;6.32;;;;;;;5.80;100.00;98843.88;5098071;27;20018;-84
2022/10/06 02:45:42;;;;;;;10.82;5.95;;;;;;;5.71;100.00;98844.09;5098603;27;20109;-84
2022/10/06 02:48:11;;;;;;;10.88;6.22;;;;;;;5.64;100.00;98837.16;5099131;27;20033;-84
2022/10/06 02:50:37;;;;;;;11.70;6.18;;;;;;;5.57;100.00;98829.38;5098734;27;20027;-84
2022/10/06 02:53:07;;;;;;;11.00;5.82;;;;;;;5.61;100.00;98837.22;5115359;27;20038;-84
2022/10/06 02:55:34;;;;;;;11.45;5.57;;;;;;;5.60;100.00;98832.81;5099160;27;20027;-84
2022/10/06 02:58:00;;;;;;;13.57;5.45;;;;;;;5.61;100.00;98833.69;5098730;27;20031;-83
2022/10/06 03:00:25;;;;;;;10.30;5.90;;;;;;;5.64;100.00;98849.53;5116034;27;20031;-84
2022/10/06 03:02:52;;;;;;;10.48;5.50;;;;;;;5.63;100.00;98837.22;5097965;27;20033;-83
2022/10/06 03:05:18;;;;;;;27.00;12.30;;;;;;;5.65;100.00;98836.25;5098927;27;20477;-85
2022/10/06 03:07:44;;;;;;;10.93;6.03;;;;;;;5.71;100.00;98844.09;5116873;27;20035;-83
2022/10/06 03:10:10;;;;;;;17.48;6.38;;;;;;;5.61;100.00;98839.88;5098669;27;20023;-84
2022/10/06 03:12:35;;;;;;;10.10;6.28;;;;;;;5.63;100.00;98842.50;5098377;27;20030;-83
2022/10/06 03:15:01;;;;;;;14.75;6.35;;;;;;;5.55;100.00;98833.81;5098135;27;20031;-84
2022/10/06 03:17:26;;;;;;;13.77;5.55;;;;;;;5.65;100.00;98848.66;5115976;27;20076;-83
2022/10/06 03:19:54;;;;;;;17.95;6.32;;;;;;;5.69;100.00;98848.53;5116998;27;20034;-84
2022/10/06 03:22:20;;;;;;;10.32;5.38;;;;;;;5.75;100.00;98837.78;5101264;27;20023;-85
2022/10/06 03:24:46;;;;;;;13.73;5.97;;;;;;;5.74;100.00;98840.50;5115012;27;20508;-84
2022/10/06 03:27:11;;;;;;;12.23;5.95;;;;;;;5.84;100.00;98844.69;5100933;27;20031;-84
2022/10/06 03:29:37;;;;;;;14.32;6.13;;;;;;;5.86;100.00;98842.91;5098109;27;20062;-85
2022/10/06 03:32:02;;;;;;;9.75;5.55;;;;;;;5.93;100.00;98842.75;5097594;27;20027;-84
2022/10/06 03:34:28;;;;;;;12.95;5.90;;;;;;;5.84;100.00;98836.72;5114847;27;20455;-84
2022/10/06 03:36:53;;;;;;;10.45;5.50;;;;;;;5.78;100.00;98820.94;5097562;27;20031;-84
2022/10/06 03:39:19;;;;;;;13.52;5.88;;;;;;;5.70;100.00;98818.44;5097840;27;20062;-83
2022/10/06 03:41:45;;;;;;;9.15;5.13;;;;;;;5.70;100.00;98821.09;5097364;27;20048;-84
2022/10/06 03:44:10;;;;;;;18.23;5.80;;;;;;;5.71;100.00;98830.81;5097416;28;20035;-84
2022/10/06 03:46:36;;;;;;;16.05;5.70;;;;;;;5.62;100.00;98825.72;5097726;27;20114;-85
2022/10/06 03:49:02;;;;;;;13.65;6.57;;;;;;;5.64;100.00;98834.50;5097536;27;20031;-83
2022/10/06 03:51:39;;;;;;;18.77;9.15;;;;;;;5.72;100.00;98847.63;5097112;27;20604;-84
2022/10/06 03:54:09;;;;;;;18.27;9.02;;;;;;;5.56;100.00;98831.16;5097275;28;20420;-84
2022/10/06 03:56:37;;;;;;;12.15;7.32;;;;;;;5.47;100.00;98820.72;5102054;27;20110;-84
2022/10/06 03:59:18;;;;;;;12.02;6.10;;;;;;;5.53;100.00;98841.84;5100180;27;20047;-84
2022/10/06 04:02:10;;;;;;;14.30;7.43;;;;;;;5.46;100.00;98841.09;5102634;27;20125;-84
2022/10/06 04:04:39;;;;;;;37.45;13.65;;;;;;;5.45;100.00;98830.47;5120360;28;20114;-84
2022/10/06 04:07:30;;;;;;;21.75;9.43;;;;;;;5.50;100.00;98852.50;5101844;28;20023;-84
2022/10/06 04:13:34;;;;;;;30.17;11.13;;;;;;;5.23;100.00;98786.75;5130016;28;20454;-76
2022/10/06 04:16:18;;;;;;;26.53;10.00;;;;;;;5.65;100.00;98854.84;5096388;28;20122;-76
2022/10/06 04:18:54;;;;;;;21.67;8.20;;;;;;;5.67;100.00;98858.31;5113681;28;20588;-76
2022/10/06 04:21:24;;;;;;;14.65;7.20;;;;;;;5.78;100.00;98863.41;5096668;28;20040;-76
2022/10/06 04:24:23;;;;;;;12.90;7.07;;;;;;;5.90;100.00;98873.78;5096237;28;20079;-76
2022/10/06 04:26:51;;;;;;;30.63;10.27;;;;;;;5.84;100.00;98861.50;5113431;28;20450;-75
2022/10/06 04:29:51;;;;;;;25.17;9.32;;;;;;;5.79;100.00;98855.41;5111740;28;20039;-77
2022/10/06 04:32:23;;;;;;;32.60;11.85;;;;;;;5.84;100.00;98864.16;5105644;28;20088;-75
2022/10/06 04:34:53;;;;;;;30.65;10.95;;;;;;;5.79;100.00;98866.03;5090701;28;20122;-76
2022/10/06 04:37:19;;;;;;;32.92;12.95;;;;;;;5.67;100.00;98850.38;5095660;28;20031;-76
2022/10/06 04:40:03;;;;;;;23.40;12.80;;;;;;;5.62;100.00;98836.31;5113540;28;20027;-76
2022/10/06 04:42:56;;;;;;;36.72;16.63;;;;;;;5.61;100.00;98842.53;5104703;28;20478;-76
2022/10/06 04:45:21;;;;;;;;;;;;;;;5.62;100.00;98856.69;5113459;28;20034;-76
2022/10/06 04:47:50;;;;;;;22.63;10.52;;;;;;;5.48;100.00;98851.66;5112271;28;19911;-75
2022/10/06 04:50:17;;;;;;;22.52;9.30;;;;;;;5.32;100.00;98834.31;5096081;28;20035;-77
2022/10/06 04:52:42;;;;;;;22.90;9.85;;;;;;;5.29;100.00;98852.94;5095643;28;20045;-77
2022/10/06 04:55:09;;;;;;;21.83;10.40;;;;;;;5.38;100.00;98858.06;5095642;27;20035;-76
2022/10/06 04:57:38;;;;;;;38.10;11.00;;;;;;;5.36;100.00;98844.81;5099802;27;20052;-76
2022/10/06 05:00:22;;;;;;;33.80;10.82;;;;;;;5.47;100.00;98856.06;5116718;27;20439;-76
2022/10/06 05:02:54;;;;;;;25.17;11.15;;;;;;;5.45;100.00;98849.06;5097694;27;20110;-75
2022/10/06 05:05:23;;;;;;;31.73;14.18;;;;;;;5.43;100.00;98848.22;5099672;27;20053;-76
2022/10/06 05:07:49;;;;;;;21.42;9.27;;;;;;;5.59;100.00;98854.97;5116340;27;20074;-76
2022/10/06 05:10:32;;;;;;;29.95;12.77;;;;;;;6.00;100.00;98878.84;5116080;27;20063;-76
2022/10/06 05:12:58;;;;;;;22.42;10.40;;;;;;;6.45;100.00;98889.34;5116176;27;20084;-76
2022/10/06 05:15:23;;;;;;;35.25;10.45;;;;;;;6.73;100.00;98877.13;5115854;27;20023;-74
2022/10/06 05:17:49;;;;;;;24.63;10.25;;;;;;;7.08;100.00;98861.09;5116592;27;20115;-75
2022/10/06 05:20:14;;;;;;;18.10;8.70;;;;;;;7.17;100.00;98854.66;5098601;27;20031;-75
2022/10/06 05:22:40;;;;;;;20.58;8.93;;;;;;;7.87;100.00;98884.59;5115956;27;20465;-75
2022/10/06 05:25:06;;;;;;;13.73;7.28;;;;;;;8.33;100.00;98886.75;5098964;27;20060;-75
2022/10/06 05:27:31;;;;;;;20.33;9.30;;;;;;;8.64;100.00;98855.53;5098687;27;20054;-75
2022/10/06 05:29:57;;;;;;;19.58;9.68;;;;;;;8.99;100.00;98857.84;5115943;27;20047;-75
2022/10/06 05:32:22;;;;;;;19.73;11.00;;;;;;;9.36;100.00;98843.19;5098756;27;20031;-75
2022/10/06 05:34:48;;;;;;;28.60;12.98;;;;;;;9.63;100.00;98843.06;5099047;27;20038;-76
2022/10/06 05:37:13;;;;;;;34.30;13.32;;;;;;;10.07;100.00;98844.03;5115834;27;20387;-75
2022/10/06 05:39:39;;;;;;;54.97;11.55;;;;;;;10.27;98.83;98816.56;5098811;27;20035;-77
2022/10/06 05:42:04;;;;;;;29.90;12.48;;;;;;;10.12;99.42;98798.41;5116002;27;20087;-77
2022/10/06 05:44:30;;;;;;;34.42;12.55;;;;;;;10.33;99.21;98795.78;5098621;27;20096;-76
2022/10/06 05:46:55;;;;;;;32.10;11.52;;;;;;;10.99;97.72;98825.97;5099103;27;20031;-75
2022/10/06 05:49:21;;;;;;;24.95;11.32;;;;;;;11.92;91.09;98833.41;5115695;27;20035;-77
2022/10/06 05:51:47;;;;;;;30.52;12.98;;;;;;;12.42;88.10;98806.84;5098912;27;20034;-76
2022/10/06 05:54:13;;;;;;;37.92;14.45;;;;;;;13.47;82.61;98807.69;5098622;27;20019;-76
2022/10/06 05:56:38;;;;;;;52.88;16.10;;;;;;;13.47;81.17;98768.22;5115284;27;20027;-75
2022/10/06 05:59:04;;;;;;;25.48;12.68;;;;;;;13.95;79.11;98767.34;5115886;27;20026;-75
2022/10/06 06:01:40;;;;;;;26.33;11.98;;;;;;;14.22;76.45;98742.50;5115218;27;20397;-75
2022/10/06 06:04:08;;;;;;;25.08;12.07;;;;;;;14.84;73.34;98728.97;5116222;27;20023;-74
2022/10/06 06:06:41;;;;;;;25.55;12.10;;;;;;;15.61;71.34;98737.66;5115206;27;20023;-75
2022/10/06 06:09:15;;;;;;;25.85;13.18;;;;;;;17.04;65.04;98703.81;5097363;27;20031;-76
2022/10/06 06:11:43;;;;;;;30.83;13.27;;;;;;;17.75;61.37;98677.06;5098131;27;20081;-76
2022/10/06 06:14:11;;;;;;;30.00;13.35;;;;;;;17.30;61.40;98648.75;5115287;27;20478;-77
2022/10/06 06:16:38;;;;;;;21.15;11.73;;;;;;;17.33;61.06;98635.88;5098150;27;20115;-77
2022/10/06 06:19:04;;;;;;;20.67;11.60;;;;;;;18.69;58.05;98651.88;5115206;27;20019;-76
2022/10/06 06:21:30;;;;;;;18.67;10.80;;;;;;;19.34;54.29;98616.00;5098233;27;20080;-76
2022/10/06 06:23:56;;;;;;;19.02;10.70;;;;;;;19.91;52.39;98599.53;5114889;27;20122;-77
2022/10/06 06:26:27;;;;;;;22.35;10.52;;;;;;;19.97;51.57;98589.03;5098307;27;20538;-76
2022/10/06 06:28:55;;;;;;;22.77;10.00;;;;;;;21.54;48.29;98593.47;5114730;27;20406;-76
2022/10/06 06:31:25;;;;;;;23.83;10.90;;;;;;;22.41;45.75;98580.03;5115223;27;20030;-76
2022/10/06 06:33:52;;;;;;;21.38;9.85;;;;;;;23.00;44.31;98572.53;5097891;27;20027;-77
2022/10/06 06:36:25;;;;;;;16.80;8.60;;;;;;;24.44;41.37;98560.00;5114709;27;20026;-76
2022/10/06 06:38:53;;;;;;;15.48;9.13;;;;;;;24.07;41.16;98541.81;5097556;27;20027;-77
2022/10/06 06:41:20;;;;;;;14.50;9.15;;;;;;;24.08;40.91;98538.09;5114815;27;20031;-76
2022/10/06 06:43:46;;;;;;;20.15;8.90;;;;;;;24.21;40.81;98535.84;5097959;27;20072;-76
2022/10/06 06:46:16;;;;;;;19.83;12.13;;;;;;;24.59;40.31;98520.09;5114938;27;20402;-76
2022/10/06 06:48:42;;;;;;;22.42;12.65;;;;;;;24.71;39.80;98507.88;5114884;27;20019;-75
2022/10/06 06:51:10;;;;;;;20.60;10.80;;;;;;;24.32;40.59;98501.94;5097933;27;20429;-76
2022/10/06 06:53:37;;;;;;;18.67;9.95;;;;;;;23.64;41.20;98487.03;5097888;27;20027;-76
2022/10/06 06:56:03;;;;;;;18.65;10.90;;;;;;;23.30;42.09;98483.16;5114485;27;20845;-75
2022/10/06 06:58:29;;;;;;;19.60;11.02;;;;;;;22.68;43.43;98484.69;5097844;27;20137;-75
2022/10/06 07:01:12;;;;;;;19.02;10.23;;;;;;;22.81;43.39;98473.47;5097861;27;20047;-76
2022/10/06 07:03:44;;;;;;;20.38;11.23;;;;;;;22.71;44.17;98478.94;5097937;27;20058;-76
2022/10/06 07:06:11;;;;;;;34.97;16.42;;;;;;;22.34;45.26;98467.06;5111410;27;20046;-76
2022/10/06 07:08:41;;;;;;;23.10;11.38;;;;;;;21.38;46.88;98458.88;5097837;27;20393;-77
2022/10/06 07:11:15;;;;;;;23.88;11.20;;;;;;;21.72;46.76;98462.91;5114847;27;20033;-77
2022/10/06 07:13:42;;;;;;;20.20;12.13;;;;;;;21.87;46.16;98460.63;5114214;27;20019;-77
2022/10/06 07:27:09;;;;;;;23.63;12.10;;;;;;;22.03;46.14;98445.44;5116641;27;20092;-76
2022/10/06 07:29:34;;;;;;;14.63;10.02;;;;;;;21.68;47.20;98456.03;5091118;27;20043;-77
2022/10/06 07:32:00;;;;;;;21.65;11.25;;;;;;;22.58;46.36;98472.91;5113837;27;20044;-76
2022/10/06 07:34:29;;;;;;;31.80;13.70;;;;;;;22.62;45.59;98439.75;5096954;27;20027;-77
2022/10/06 07:36:57;;;;;;;18.42;11.25;;;;;;;22.82;44.96;98443.31;5114141;27;20102;-77
2022/10/06 07:39:23;;;;;;;22.55;11.75;;;;;;;22.72;45.22;98447.94;5113804;27;20054;-78
2022/10/06 07:41:49;;;;;;;19.75;9.85;;;;;;;22.75;45.25;98442.19;5113606;27;20035;-78
2022/10/06 07:44:14;;;;;;;19.10;10.82;;;;;;;22.89;45.58;98455.31;5096644;27;20015;-76
2022/10/06 07:46:41;;;;;;;19.65;10.82;;;;;;;23.03;45.09;98449.41;5096570;27;20106;-78
2022/10/06 07:49:07;;;;;;;12.68;8.38;;;;;;;23.14;44.34;98460.09;5113705;27;20026;-78
2022/10/06 07:51:32;;;;;;;23.58;9.18;;;;;;;23.69;43.77;98466.41;5113508;27;20019;-78
2022/10/06 07:53:58;;;;;;;14.95;8.73;;;;;;;23.95;43.51;98468.38;5113219;28;20027;-78
2022/10/06 07:56:24;;;;;;;17.92;12.15;;;;;;;22.73;46.04;98455.13;5096441;27;20026;-78
2022/10/06 07:58:50;;;;;;;19.63;9.00;;;;;;;23.95;43.86;98469.25;5113198;28;20117;-77
2022/10/06 08:01:18;;;;;;;13.20;8.27;;;;;;;23.80;43.89;98467.22;5096236;28;20509;-76
2022/10/06 08:03:47;;;;;;;9.85;5.97;;;;;;;24.16;43.55;98469.81;5113433;28;20027;-77
2022/10/06 08:06:14;;;;;;;15.70;7.85;;;;;;;24.34;42.50;98445.19;5096530;27;20099;-77
2022/10/06 08:08:41;;;;;;;17.75;9.50;;;;;;;24.01;42.38;98444.03;5113679;28;20034;-77
2022/10/06 08:11:07;;;;;;;26.23;12.40;;;;;;;25.07;40.72;98457.47;5096813;28;20543;-77
2022/10/06 08:13:35;;;;;;;35.92;17.13;;;;;;;25.74;40.26;98442.88;5113989;28;20023;-78
2022/10/06 08:16:13;;;;;;;26.38;12.80;;;;;;;25.87;40.58;98453.34;5113941;28;20035;-78
2022/10/06 08:18:39;;;;;;;12.35;8.50;;;;;;;26.42;39.14;98443.44;5096678;28;20034;-79
2022/10/06 08:21:16;;;;;;;23.50;9.73;;;;;;;26.01;39.32;98418.91;5113504;28;20027;-78
2022/10/06 08:23:43;;;;;;;13.38;7.32;;;;;;;26.47;38.52;98434.69;5113467;28;20019;-78
2022/10/06 08:26:10;;;;;;;16.17;9.23;;;;;;;26.73;39.21;98437.25;5113653;28;20023;-78
2022/10/06 08:28:36;;;;;;;8.38;5.40;;;;;;;26.30;38.89;98433.00;5113640;28;20023;-77
2022/10/06 08:31:03;;;;;;;10.35;5.13;;;;;;;26.58;38.20;98430.75;5097449;27;20131;-78
2022/10/06 08:33:30;;;;;;;10.23;6.45;;;;;;;26.39;38.50;98416.34;5100449;27;20417;-78
2022/10/06 08:36:01;;;;;;;9.35;5.38;;;;;;;25.76;39.46;98424.38;5117562;27;20023;-77
2022/10/06 08:38:26;;;;;;;10.73;5.95;;;;;;;26.52;38.37;98425.97;5100398;27;20023;-76
2022/10/06 08:40:52;;;;;;;9.57;4.95;;;;;;;26.76;38.26;98417.69;5097669;27;20042;-77
2022/10/06 08:43:19;;;;;;;11.60;4.70;;;;;;;27.26;36.76;98420.94;5117397;27;20030;-76
2022/10/06 08:45:47;;;;;;;19.75;5.97;;;;;;;26.91;36.94;98405.81;5100034;27;20524;-78
2022/10/06 08:48:18;;;;;;;11.52;5.38;;;;;;;26.47;37.77;98406.41;5100027;27;20026;-79
2022/10/06 08:50:47;;;;;;;10.65;5.13;;;;;;;27.57;36.37;98425.63;5100391;27;20046;-79
2022/10/06 08:53:30;;;;;;;7.95;4.40;;;;;;;27.65;35.98;98414.59;5117034;27;20371;-79
2022/10/06 08:56:16;;;;;;;10.98;4.00;;;;;;;28.40;34.29;98413.69;5117006;27;20406;-79
2022/10/06 08:58:57;;;;;;;6.47;3.55;;;;;;;28.53;34.91;98411.16;5101040;27;20484;-79
2022/10/06 09:01:24;;;;;;;4.80;3.53;;;;;;;28.94;33.45;98408.03;5098369;27;20027;-79
2022/10/06 09:03:52;;;;;;;8.63;4.10;;;;;;;28.60;33.80;98386.50;5117460;27;20030;-80
2022/10/06 09:06:33;;;;;;;7.78;4.15;;;;;;;28.56;33.75;98387.03;5099834;27;20113;-80
2022/10/06 09:09:14;;;;;;;6.55;3.40;;;;;;;28.59;32.83;98373.75;5117708;27;20035;-80
2022/10/06 09:11:48;;;;;;;7.75;3.42;;;;;;;29.13;32.74;98385.41;5111429;27;20027;-79
2022/10/06 09:14:23;;;;;;;5.53;3.20;;;;;;;29.01;32.27;98375.88;5117029;27;20478;-80
2022/10/06 09:16:52;;;;;;;3.72;3.17;;;;;;;28.90;32.14;98365.34;5117110;27;20406;-80
2022/10/06 09:19:23;;;;;;;5.43;3.67;;;;;;;28.25;33.29;98356.91;5116558;27;20019;-79
2022/10/06 09:21:51;;;;;;;8.93;3.88;;;;;;;28.71;32.22;98365.91;5101597;27;20022;-79
2022/10/06 09:24:22;;;;;;;10.77;5.72;;;;;;;29.21;31.54;98357.72;5116589;27;20459;-80
2022/10/06 09:26:49;;;;;;;6.28;3.53;;;;;;;29.00;31.64;98357.66;5099378;27;20031;-79
2022/10/06 09:29:15;;;;;;;15.00;7.95;;;;;;;28.32;32.68;98342.22;5116328;27;20039;-79
2022/10/06 09:31:49;;;;;;;8.48;4.93;;;;;;;29.19;31.35;98359.81;5114802;27;20517;-79
2022/10/06 09:34:18;;;;;;;10.02;5.20;;;;;;;30.01;30.47;98365.91;5099735;27;20037;-79
2022/10/06 09:37:14;;;;;;;15.27;4.43;;;;;;;30.91;29.40;98366.00;5116065;27;20118;-79
2022/10/06 09:39:47;;;;;;;7.43;3.78;;;;;;;31.14;28.50;98349.97;5098819;27;20510;-78
2022/10/06 09:42:21;;;;;;;8.07;3.80;;;;;;;31.40;28.31;98355.63;5115375;28;20050;-79
2022/10/06 09:44:50;;;;;;;4.85;3.58;;;;;;;31.59;27.50;98342.97;5098200;27;20084;-78
2022/10/06 09:47:28;;;;;;;4.97;3.40;;;;;;;31.44;27.09;98337.53;5116358;27;20223;-79
2022/10/06 09:50:10;;;;;;;6.78;3.15;;;;;;;31.34;26.38;98323.28;5133892;27;20461;-79
2022/10/06 09:52:39;;;;;;;4.75;3.40;;;;;;;31.69;25.92;98316.56;5133023;27;20026;-79
2022/10/06 09:55:13;;;;;;;4.93;2.85;;;;;;;31.80;25.53;98317.03;5115974;27;20027;-79
2022/10/06 09:57:47;;;;;;;6.38;3.97;;;;;;;30.50;25.42;98292.19;5115716;27;20034;-79
2022/10/06 10:00:28;;;;;;;3.45;2.13;;;;;;;31.41;25.20;98306.69;5098765;27;20023;-79
2022/10/06 10:02:59;;;;;;;4.70;1.60;;;;;;;32.30;23.55;98296.22;5132008;27;20103;-79
2022/10/06 10:05:26;;;;;;;3.85;2.78;;;;;;;32.88;23.81;98309.13;5098501;27;20369;-79
2022/10/06 10:08:21;;;;;;;2.15;1.60;;;;;;;32.11;23.11;98281.31;5099967;27;20034;-79
2022/10/06 10:10:49;;;;;;;1.80;1.58;;;;;;;32.59;23.96;98301.31;5114576;27;20031;-78
2022/10/06 10:13:22;;;;;;;8.13;1.98;;;;;;;32.92;23.85;98306.75;5098197;27;20094;-78
2022/10/06 10:15:59;;;;;;;3.30;1.85;;;;;;;32.95;24.33;98300.81;5098219;27;20052;-78
2022/10/06 10:18:29;;;;;;;2.60;1.67;;;;;;;32.41;23.38;98285.31;5098193;27;20027;-77
2022/10/06 10:20:54;;;;;;;2.03;1.70;;;;;;;32.98;23.53;98290.09;5116050;27;20031;-79
2022/10/06 10:23:30;;;;;;;1.15;0.95;;;;;;;32.42;19.75;98259.34;5132159;27;20023;-79
2022/10/06 10:26:14;;;;;;;1.17;1.00;;;;;;;32.80;19.71;98258.59;5107999;28;20032;-79
2022/10/06 10:29:04;;;;;;;1.60;0.93;;;;;;;34.30;19.06;98274.38;5131714;27;20558;-78
2022/10/06 10:31:47;;;;;;;3.03;1.40;;;;;;;35.65;17.05;98270.50;5133361;27;20030;-79
2022/10/06 10:34:49;;;;;;;0.40;0.40;;;;;;;35.50;15.74;98250.53;5115062;27;20050;-79
2022/10/06 10:37:20;;;;;;;6.82;1.27;;;;;;;35.00;17.37;98238.78;5114639;27;20492;-79
2022/10/06 10:39:51;;;;;;;11.38;1.15;;;;;;;34.07;17.84;98224.13;5115181;27;20057;-80
2022/10/06 10:42:23;;;;;;;6.28;1.10;;;;;;;34.04;20.13;98234.84;5114487;27;20474;-79
2022/10/06 10:44:59;;;;;;;4.05;2.30;;;;;;;33.14;22.79;98250.81;5097791;27;20042;-78
2022/10/06 10:47:30;;;;;;;2.90;2.25;;;;;;;33.08;21.85;98245.28;5114579;27;20035;-78
2022/10/06 10:50:05;;;;;;;1.48;1.38;;;;;;;32.42;22.61;98233.53;5097636;27;20485;-78
2022/10/06 10:52:35;;;;;;;1.25;1.10;;;;;;;32.39;23.04;98234.81;5093681;27;20521;-80
2022/10/06 10:55:27;;;;;;;1.10;1.00;;;;;;;32.80;23.30;98253.06;5110634;27;20041;-80
2022/10/06 10:57:56;;;;;;;2.75;1.50;;;;;;;32.52;24.02;98240.31;5131165;27;20027;-78
2022/10/06 11:00:26;;;;;;;2.47;1.50;;;;;;;32.95;23.47;98246.16;5097570;27;20031;-79
2022/10/06 11:02:54;;;;;;;1.53;1.20;;;;;;;33.59;22.83;98248.00;5114931;27;20023;-79
2022/10/06 11:05:44;;;;;;;1.30;1.20;;;;;;;33.49;22.79;98242.94;5113936;27;20031;-79
2022/10/06 11:08:21;;;;;;;4.78;1.85;;;;;;;33.57;22.71;98242.66;5132453;27;20034;-78
2022/10/06 11:10:50;;;;;;;8.75;2.15;;;;;;;33.43;22.71;98232.72;5114721;27;20448;-79
2022/10/06 11:13:22;;;;;;;4.35;1.42;;;;;;;33.43;22.30;98224.41;5097458;27;20482;-79
2022/10/06 11:16:15;;;;;;;8.05;2.08;;;;;;;34.15;22.59;98228.56;5114127;27;20029;-79
2022/10/06 11:18:51;;;;;;;2.10;1.30;;;;;;;35.51;20.88;98243.88;5132121;27;20026;-79
2022/10/06 11:21:16;;;;;;;2.45;1.48;;;;;;;35.39;20.99;98234.63;5132671;27;20015;-79
2022/10/06 11:23:50;;;;;;;8.48;1.75;;;;;;;34.06;21.79;98202.97;5113858;27;20072;-79
2022/10/06 11:26:15;;;;;;;9.60;3.50;;;;;;;34.38;21.82;98212.09;5132496;27;20547;-79
2022/10/06 11:28:56;;;;;;;2.00;1.50;;;;;;;33.48;21.64;98180.16;5130833;27;20122;-79
2022/10/06 11:31:30;;;;;;;1.30;1.20;;;;;;;33.14;22.83;98195.34;5097015;27;20501;-79
2022/10/06 11:34:01;;;;;;;1.63;1.40;;;;;;;34.02;21.22;98198.97;5113790;27;20070;-80
2022/10/06 11:36:33;;;;;;;1.63;1.52;;;;;;;33.55;21.32;98183.75;5096323;27;20399;-80
2022/10/06 11:39:22;;;;;;;3.38;1.83;;;;;;;33.97;21.26;98178.50;5130786;27;20190;-79
2022/10/06 11:42:11;;;;;;;3.92;1.80;;;;;;;32.96;21.61;98158.28;5113374;27;20022;-80
2022/10/06 11:45:10;;;;;;;1.67;1.58;;;;;;;32.38;22.74;98166.63;5085309;27;20414;-79
2022/10/06 11:47:55;;;;;;;1.65;1.20;;;;;;;32.02;22.45;98158.81;5116372;27;20042;-80
2022/10/06 11:50:43;;;;;;;1.75;1.33;;;;;;;32.90;21.43;98170.25;5132041;27;20402;-80
2022/10/06 11:53:30;;;;;;;3.40;2.88;;;;;;;32.18;22.03;98165.81;5112790;27;20038;-79
2022/10/06 11:56:35;;;;;;;5.70;3.17;;;;;;;30.79;23.01;98152.94;5128268;27;20027;-79